Time;durP1;ratioP1;P1;durP2;ratioP2;P2;SDS_P1;SDS_P2;PMS_P1;PMS_P2;Temp;Humidity;BMP_temperature;BMP_pressure;BME280_temperature;BME280_humidity;BME280_pressure;Samples;Min_cycle;Max_cycle;Signal;HPM_P1;HPM_P2
2022/10/03 00:02:01;;;;;;;0.03;0.03;;;;;;;17.73;61.72;97394.84;10517575;28;20032;-30
2022/10/03 00:07:27;;;;;;;0.10;0.10;;;;;;;17.69;61.61;97383.00;10509000;28;20041;-29
2022/10/03 00:12:52;;;;;;;0.13;0.10;;;;;;;17.75;61.54;97394.88;10514580;28;20031;-29
2022/10/03 00:18:11;;;;;;;0.05;0.00;;;;;;;17.75;61.68;97402.50;10516801;28;20072;-30
2022/10/03 00:23:34;;;;;;;0.10;0.10;;;;;;;17.77;61.43;97406.75;10520146;28;20045;-29
2022/10/03 00:28:38;;;;;;;0.10;0.10;;;;;;;17.83;61.25;97409.34;10511364;28;20047;-29
2022/10/03 00:33:56;;;;;;;0.10;0.10;;;;;;;17.87;61.18;97427.97;10516643;28;20482;-30
2022/10/03 00:38:57;;;;;;;0.00;0.00;;;;;;;17.82;61.33;97435.50;10514224;28;20042;-29
2022/10/03 00:44:12;;;;;;;0.10;0.00;;;;;;;17.79;61.36;97445.59;10512758;28;20464;-29
2022/10/03 00:49:55;;;;;;;0.00;0.00;;;;;;;17.75;61.72;97425.28;10517318;28;20032;-30
2022/10/03 00:55:15;;;;;;;0.20;0.10;;;;;;;17.74;61.45;97426.13;10513246;28;20039;-29
2022/10/03 01:00:25;;;;;;;0.00;0.00;;;;;;;17.73;61.50;97429.47;10517674;28;20031;-29
2022/10/03 01:05:58;;;;;;;0.00;0.00;;;;;;;17.75;61.63;97443.00;10511653;28;20101;-29
2022/10/03 01:11:26;;;;;;;0.10;0.10;;;;;;;17.58;61.51;97431.78;10512542;28;20028;-30
2022/10/03 01:16:57;;;;;;;0.05;0.05;;;;;;;17.74;61.46;97462.41;10511598;28;20032;-29
2022/10/03 01:22:03;;;;;;;0.10;0.00;;;;;;;17.73;61.52;97470.84;10506872;28;20644;-29
2022/10/03 01:27:06;;;;;;;0.10;0.10;;;;;;;17.73;61.49;97472.53;10516290;28;20032;-30
2022/10/03 01:32:40;;;;;;;0.20;0.10;;;;;;;17.82;61.28;97470.97;10515651;28;20032;-29
2022/10/03 01:37:58;;;;;;;0.20;0.20;;;;;;;17.87;61.01;97479.50;10491532;28;20071;-29
2022/10/03 01:43:02;;;;;;;0.00;0.00;;;;;;;17.84;61.27;97468.47;10506005;28;20032;-30
2022/10/03 01:48:20;;;;;;;0.05;0.00;;;;;;;17.72;61.22;97458.13;10510329;28;20041;-29
2022/10/03 01:53:49;;;;;;;0.10;0.00;;;;;;;17.75;61.54;97474.22;10515114;28;20032;-30
2022/10/03 01:59:11;;;;;;;0.10;0.10;;;;;;;17.70;61.49;97464.88;10504846;28;20364;-29
2022/10/03 02:04:20;;;;;;;0.22;0.10;;;;;;;17.74;61.44;97481.84;10506559;28;20047;-30
2022/10/03 02:09:39;;;;;;;0.17;0.10;;;;;;;17.74;61.58;97471.69;10515152;28;20117;-30
2022/10/03 02:14:45;;;;;;;0.28;0.10;;;;;;;17.73;61.59;97464.94;10516679;28;20118;-28
2022/10/03 02:20:35;;;;;;;0.20;0.20;;;;;;;17.72;61.40;97469.13;10510334;28;20498;-29
2022/10/03 02:25:35;;;;;;;0.00;0.00;;;;;;;17.71;61.52;97458.97;10509830;28;20067;-30
2022/10/03 02:31:28;;;;;;;0.00;0.00;;;;;;;17.70;61.64;97462.34;10510267;28;20111;-29
2022/10/03 02:37:07;;;;;;;0.10;0.10;;;;;;;17.82;61.21;97470.13;10506885;28;20029;-30
2022/10/03 02:42:25;;;;;;;0.10;0.10;;;;;;;17.83;61.41;97476.91;10510016;28;20554;-29
2022/10/03 02:48:05;;;;;;;0.10;0.10;;;;;;;17.64;61.23;97454.63;10514230;28;20032;-29
2022/10/03 02:53:27;;;;;;;0.13;0.13;;;;;;;17.78;61.35;97475.97;10512010;28;20032;-30
2022/10/03 02:58:39;;;;;;;0.00;0.00;;;;;;;17.74;61.37;97471.69;10515881;28;20028;-30
2022/10/03 03:03:59;;;;;;;0.20;0.20;;;;;;;17.73;61.47;97472.53;10503442;28;20036;-30
2022/10/03 03:09:35;;;;;;;0.10;0.10;;;;;;;17.73;61.53;97470.00;10503370;28;20043;-29
2022/10/03 03:15:12;;;;;;;0.00;0.00;;;;;;;17.74;61.41;97476.75;10514389;28;20063;-30
2022/10/03 03:20:30;;;;;;;0.10;0.10;;;;;;;17.73;61.61;97475.06;10512968;28;20104;-31
2022/10/03 03:25:51;;;;;;;0.10;0.10;;;;;;;17.72;61.43;97475.88;10516265;28;20098;-29
2022/10/03 03:31:06;;;;;;;0.20;0.20;;;;;;;17.70;61.38;97469.94;10516621;28;20040;-30
2022/10/03 03:36:22;;;;;;;0.00;0.00;;;;;;;17.71;61.48;97476.69;10509220;28;20112;-30
2022/10/03 03:41:49;;;;;;;0.10;0.03;;;;;;;17.77;61.35;97466.66;10518917;28;20077;-30
2022/10/03 03:46:53;;;;;;;0.30;0.10;;;;;;;17.82;61.07;97454.94;10515392;28;20040;-30
2022/10/03 03:52:34;;;;;;;0.10;0.10;;;;;;;17.83;61.05;97444.81;10518813;28;20419;-29
2022/10/03 03:57:48;;;;;;;0.10;0.10;;;;;;;17.78;61.29;97448.09;10508841;28;20027;-30
2022/10/03 04:02:49;;;;;;;0.10;0.05;;;;;;;17.73;61.36;97445.50;10513927;28;20050;-29
2022/10/03 04:08:59;;;;;;;0.20;0.10;;;;;;;17.71;61.47;97446.31;10515747;28;20032;-30
2022/10/03 04:14:37;;;;;;;0.05;0.05;;;;;;;17.67;61.72;97460.59;10463666;28;20036;-29
2022/10/03 04:19:58;;;;;;;0.30;0.10;;;;;;;17.69;61.42;97458.97;10521589;28;20040;-30
2022/10/03 04:25:26;;;;;;;0.00;0.00;;;;;;;17.68;61.46;97462.31;10508945;28;20035;-30
2022/10/03 04:30:54;;;;;;;0.10;0.10;;;;;;;17.66;61.47;97463.13;10515038;28;20044;-29
2022/10/03 04:36:29;;;;;;;0.10;0.10;;;;;;;17.66;61.46;97460.59;10516328;28;20071;-30
2022/10/03 04:41:39;;;;;;;0.00;0.00;;;;;;;17.66;61.48;97458.91;10516514;28;20024;-30
2022/10/03 04:46:54;;;;;;;0.40;0.10;;;;;;;17.75;61.37;97474.22;10513078;28;20036;-31
2022/10/03 04:52:17;;;;;;;0.00;0.00;;;;;;;17.75;61.37;97460.75;10513919;28;20024;-30
2022/10/03 04:57:29;;;;;;;0.00;0.00;;;;;;;17.80;61.02;97466.69;10509445;28;20451;-29
2022/10/03 05:02:46;;;;;;;0.10;0.10;;;;;;;17.75;61.33;97448.06;10515069;28;20029;-30
2022/10/03 05:07:59;;;;;;;0.05;0.03;;;;;;;17.68;61.55;97456.41;10509506;28;20082;-29
2022/10/03 05:13:24;;;;;;;0.00;0.00;;;;;;;17.69;61.56;97464.03;10514555;28;20066;-30
2022/10/03 05:18:27;;;;;;;0.10;0.10;;;;;;;17.66;61.68;97463.13;10511477;28;20377;-31
2022/10/03 05:23:36;;;;;;;0.20;0.20;;;;;;;17.69;61.58;97474.16;10511210;28;20046;-29
2022/10/03 05:28:58;;;;;;;0.00;0.00;;;;;;;17.70;61.49;97487.66;10511684;28;20089;-30
2022/10/03 05:34:37;;;;;;;0.00;0.00;;;;;;;17.67;61.66;97495.22;10511703;28;20089;-30
2022/10/03 05:40:13;;;;;;;0.10;0.10;;;;;;;17.68;61.44;97491.84;10517489;28;20096;-30
2022/10/03 05:45:35;;;;;;;0.28;0.10;;;;;;;17.65;61.54;97494.34;10505964;28;20479;-29
2022/10/03 05:50:57;;;;;;;0.00;0.00;;;;;;;17.65;61.45;97501.97;10505369;28;20472;-30
2022/10/03 05:56:06;;;;;;;0.17;0.10;;;;;;;17.74;61.41;97507.16;10504624;28;20042;-30
2022/10/03 06:01:46;;;;;;;0.10;0.10;;;;;;;17.80;61.17;97514.81;10514038;28;20643;-30
2022/10/03 06:07:19;;;;;;;0.05;0.05;;;;;;;17.74;61.09;97522.34;10518296;28;20537;-29
2022/10/03 06:12:29;;;;;;;0.00;0.00;;;;;;;17.67;61.41;97523.91;10508357;28;20035;-29
2022/10/03 06:17:41;;;;;;;0.00;0.00;;;;;;;17.67;61.50;97525.63;10510441;28;20023;-30
2022/10/03 06:23:13;;;;;;;0.10;0.10;;;;;;;17.66;61.38;97527.28;10508637;28;20138;-31
2022/10/03 06:28:31;;;;;;;0.00;0.00;;;;;;;17.67;61.51;97530.69;10504818;28;20043;-30
2022/10/03 06:33:56;;;;;;;0.00;0.00;;;;;;;17.66;61.49;97541.63;10513686;28;20071;-29
2022/10/03 06:39:44;;;;;;;0.00;0.00;;;;;;;17.58;61.51;97530.53;10505679;28;20031;-29
2022/10/03 06:45:08;;;;;;;;;;;;;;;17.64;61.55;97540.75;10508125;28;20035;-29
2022/10/03 06:50:34;;;;;;;0.10;0.10;;;;;;;17.63;61.45;97546.63;10475871;28;19962;-29
2022/10/03 06:56:11;;;;;;;0.00;0.00;;;;;;;17.69;61.30;97554.34;10503974;28;20471;-29
2022/10/03 07:01:11;;;;;;;0.00;0.00;;;;;;;17.70;61.08;97545.91;10511917;28;20182;-29
2022/10/03 07:06:37;;;;;;;0.10;0.10;;;;;;;17.79;61.13;97566.31;10507817;28;20091;-29
2022/10/03 07:12:16;;;;;;;0.05;0.05;;;;;;;17.75;61.10;97567.13;10509169;28;20028;-30
2022/10/03 07:17:27;;;;;;;0.10;0.00;;;;;;;17.70;61.32;97554.38;10505646;28;20071;-29
2022/10/03 07:22:48;;;;;;;0.00;0.00;;;;;;;17.67;61.42;97551.78;10511496;28;20040;-29
2022/10/03 07:28:20;;;;;;;0.00;0.00;;;;;;;17.67;61.44;97566.13;10500545;28;20052;-29
2022/10/03 07:33:46;;;;;;;0.08;0.08;;;;;;;17.68;61.35;97568.66;10508404;28;20036;-30
2022/10/03 07:39:14;;;;;;;0.00;0.00;;;;;;;17.66;61.40;97577.94;10507688;28;20024;-30
2022/10/03 07:44:34;;;;;;;0.08;0.08;;;;;;;17.66;61.57;97575.41;10507734;28;20032;-32
2022/10/03 07:49:56;;;;;;;0.80;0.03;;;;;;;17.66;61.45;97580.47;10507755;28;20047;-29
2022/10/03 07:55:21;;;;;;;0.10;0.10;;;;;;;17.68;61.44;97588.09;10507683;28;20020;-30
2022/10/03 08:00:25;;;;;;;0.08;0.08;;;;;;;17.65;61.52;97577.94;10506767;28;20036;-29
2022/10/03 08:05:31;;;;;;;0.10;0.10;;;;;;;17.76;61.26;97581.47;10508943;28;20093;-29
2022/10/03 08:10:59;;;;;;;;;;;;;;;17.78;61.15;97587.41;10515608;28;20097;-30
2022/10/03 08:16:27;;;;;;;0.20;0.20;;;;;;;17.77;61.04;97590.78;10512215;28;19909;-30
2022/10/03 08:21:54;;;;;;;0.03;0.03;;;;;;;17.72;61.21;97587.31;10522451;28;20037;-30
2022/10/03 08:27:21;;;;;;;0.03;0.00;;;;;;;17.70;61.32;97588.97;10508866;28;20404;-30
2022/10/03 08:33:13;;;;;;;0.00;0.00;;;;;;;17.67;61.40;97578.78;10520047;28;20375;-30
2022/10/03 08:38:35;;;;;;;0.03;0.00;;;;;;;17.68;61.18;97577.97;10468843;28;20071;-29
2022/10/03 08:43:38;;;;;;;0.00;0.00;;;;;;;17.68;61.55;97578.78;10513858;28;20032;-30
2022/10/03 08:48:46;;;;;;;0.00;0.00;;;;;;;17.69;61.27;97570.41;10512064;28;20036;-30
2022/10/03 08:54:23;;;;;;;0.10;0.00;;;;;;;17.67;61.56;97566.13;10512442;28;20033;-29
2022/10/03 08:59:42;;;;;;;0.00;0.00;;;;;;;17.69;61.47;97564.47;10507697;28;20040;-30
2022/10/03 09:05:30;;;;;;;0.00;0.00;;;;;;;17.70;61.50;97564.50;10513143;28;20036;-29
2022/10/03 09:10:36;;;;;;;0.13;0.00;;;;;;;17.75;61.27;97564.56;10362802;28;20078;-29
2022/10/03 09:15:58;;;;;;;0.10;0.00;;;;;;;17.77;61.18;97565.44;10487063;28;20535;-29
2022/10/03 09:21:32;;;;;;;0.00;0.00;;;;;;;17.82;60.97;97563.84;10516532;28;20522;-30
2022/10/03 09:26:59;;;;;;;0.00;0.00;;;;;;;17.76;61.27;97561.22;10511191;28;20036;-29
2022/10/03 09:32:26;;;;;;;0.43;0.10;;;;;;;17.73;61.38;97568.78;10516270;28;20092;-30
2022/10/03 09:37:59;;;;;;;0.00;0.00;;;;;;;17.70;61.31;97573.78;10511538;28;20391;-29
2022/10/03 09:43:32;;;;;;;0.08;0.00;;;;;;;17.70;61.21;97568.69;10506695;28;20036;-30
2022/10/03 09:48:42;;;;;;;0.08;0.00;;;;;;;17.70;61.48;97571.25;10514247;28;20036;-30
2022/10/03 09:53:54;;;;;;;0.40;0.08;;;;;;;17.69;61.50;97572.94;10511120;28;20032;-30
2022/10/03 09:59:06;;;;;;;0.20;0.00;;;;;;;17.70;61.53;97568.69;10501445;28;20016;-30
2022/10/03 10:04:19;;;;;;;0.00;0.00;;;;;;;17.69;61.58;97572.94;10512128;28;20037;-30
2022/10/03 10:09:50;;;;;;;0.20;0.10;;;;;;;17.69;61.47;97569.53;10519644;28;20166;-30
2022/10/03 10:15:16;;;;;;;0.10;0.10;;;;;;;17.72;61.47;97572.97;10510180;28;20084;-29
2022/10/03 10:20:35;;;;;;;0.00;0.00;;;;;;;17.76;61.19;97566.28;10511080;28;20039;-29
2022/10/03 10:26:16;;;;;;;0.00;0.00;;;;;;;17.62;61.30;97547.47;10509272;28;20294;-30
2022/10/03 10:31:39;;;;;;;0.00;0.00;;;;;;;17.79;61.12;97577.31;10498869;28;20048;-29
2022/10/03 10:36:54;;;;;;;0.03;0.03;;;;;;;17.72;61.29;97575.50;10509233;28;20036;-29
2022/10/03 10:42:16;;;;;;;0.10;0.10;;;;;;;17.71;61.42;97578.88;10509971;28;20383;-29
2022/10/03 10:47:55;;;;;;;0.10;0.10;;;;;;;17.71;61.41;97575.47;10512200;28;20038;-30
2022/10/03 10:53:36;;;;;;;0.00;0.00;;;;;;;17.70;61.54;97561.09;10478862;28;20035;-30
2022/10/03 10:59:15;;;;;;;0.00;0.00;;;;;;;17.71;61.53;97557.75;10517739;28;20035;-29
2022/10/03 11:04:34;;;;;;;0.00;0.00;;;;;;;17.71;61.40;97557.75;10506191;28;20376;-29
2022/10/03 11:09:43;;;;;;;0.00;0.00;;;;;;;17.68;61.51;97552.63;10506981;28;20072;-29
2022/10/03 11:15:17;;;;;;;0.10;0.10;;;;;;;17.71;61.56;97552.69;10515836;28;20028;-29
2022/10/03 11:20:46;;;;;;;0.00;0.00;;;;;;;17.71;61.52;97553.53;10508049;28;20028;-29
2022/10/03 11:26:01;;;;;;;0.00;0.00;;;;;;;17.77;61.36;97545.19;10509052;28;20028;-29
2022/10/03 11:31:27;;;;;;;0.00;0.00;;;;;;;17.79;61.22;97541.00;10510213;28;20271;-29
2022/10/03 11:36:56;;;;;;;0.08;0.08;;;;;;;17.75;61.32;97534.19;10509726;28;20025;-29
2022/10/03 11:42:10;;;;;;;0.00;0.00;;;;;;;17.73;61.53;97539.22;10514554;28;20040;-31
2022/10/03 11:47:27;;;;;;;0.10;0.10;;;;;;;17.74;61.27;97537.56;10517919;28;20460;-29
2022/10/03 11:52:48;;;;;;;0.00;0.00;;;;;;;17.71;61.61;97533.28;10516875;28;20435;-30
2022/10/03 11:58:01;;;;;;;0.10;0.10;;;;;;;17.70;61.66;97530.72;10507075;28;20108;-30
2022/10/03 12:03:25;;;;;;;0.20;0.20;;;;;;;17.71;61.54;97527.34;10520602;28;20063;-30
2022/10/03 12:14:26;;;;;;;0.10;0.10;;;;;;;17.71;61.37;97527.34;10519729;28;20024;-30
2022/10/03 12:19:29;;;;;;;0.10;0.10;;;;;;;17.71;61.32;97529.88;10524149;28;20119;-29
2022/10/03 12:24:39;;;;;;;0.00;0.00;;;;;;;17.70;61.50;97534.13;10511046;28;20048;-29
2022/10/03 12:29:44;;;;;;;0.00;0.00;;;;;;;17.73;61.59;97521.50;10523479;28;20042;-29
2022/10/03 12:35:23;;;;;;;0.00;0.00;;;;;;;17.80;61.24;97507.22;10509916;28;20028;-30
2022/10/03 12:40:32;;;;;;;0.10;0.10;;;;;;;17.79;61.37;97500.47;10517826;28;20035;-29
2022/10/03 12:45:35;;;;;;;0.00;0.00;;;;;;;17.77;61.51;97502.13;10513630;28;20036;-29
2022/10/03 12:51:01;;;;;;;0.03;0.03;;;;;;;17.73;61.54;97515.59;10508997;28;20112;-30
2022/10/03 12:56:10;;;;;;;0.10;0.10;;;;;;;17.73;61.61;97511.34;10506288;28;20036;-30
2022/10/03 13:01:23;;;;;;;0.00;0.00;;;;;;;17.73;61.42;97510.53;10516208;28;20078;-30
2022/10/03 13:06:46;;;;;;;0.00;0.00;;;;;;;17.71;61.41;97502.03;10520425;28;20464;-30
2022/10/03 13:12:02;;;;;;;0.08;0.08;;;;;;;17.71;61.53;97499.50;10513262;28;20272;-30
2022/10/03 13:17:16;;;;;;;0.10;0.10;;;;;;;17.70;61.54;97493.59;10506811;28;20066;-29
2022/10/03 13:22:32;;;;;;;0.10;0.10;;;;;;;17.71;61.50;97487.69;10511115;28;20668;-29
2022/10/03 13:28:00;;;;;;;0.10;0.10;;;;;;;17.71;61.55;97485.16;10513891;28;20059;-29
2022/10/03 13:33:20;;;;;;;0.00;0.00;;;;;;;17.73;61.59;97486.03;10512716;28;20047;-30
2022/10/03 13:38:45;;;;;;;0.00;0.00;;;;;;;17.75;61.51;97473.41;10516928;28;20029;-29
2022/10/03 13:43:57;;;;;;;0.10;0.10;;;;;;;17.77;61.24;97470.06;10510159;28;20036;-29
2022/10/03 13:49:09;;;;;;;0.05;0.05;;;;;;;17.76;61.58;97465.81;10510578;28;20632;-30
2022/10/03 13:54:38;;;;;;;0.10;0.10;;;;;;;17.75;61.43;97459.03;10517577;28;20036;-29
2022/10/03 13:59:57;;;;;;;0.00;0.00;;;;;;;17.74;61.42;97461.56;10514351;28;20459;-29
2022/10/03 14:05:15;;;;;;;0.08;0.08;;;;;;;17.74;61.43;97459.03;10514039;28;20066;-29
2022/10/03 14:10:31;;;;;;;1.67;0.20;;;;;;;17.83;61.38;97454.09;10502240;28;20113;-28
2022/10/03 14:15:42;;;;;;;0.60;0.10;;;;;;;17.91;61.28;97455.91;10506400;28;20041;-28
2022/10/03 14:20:52;;;;;;;0.70;0.00;;;;;;;17.91;61.19;97455.06;10532911;28;20035;-27
2022/10/03 14:26:34;;;;;;;1.33;0.52;;;;;;;17.90;61.47;97458.44;10498954;28;20403;-29
2022/10/03 14:31:42;;;;;;;2.20;0.20;;;;;;;17.92;61.29;97454.22;10439241;28;20035;-30
2022/10/03 14:36:47;;;;;;;2.50;0.40;;;;;;;17.93;61.10;97444.09;10508058;28;20025;-28
2022/10/03 14:42:10;;;;;;;0.63;0.30;;;;;;;18.00;61.16;97445.06;10506203;28;20016;-28
2022/10/03 14:47:15;;;;;;;8.80;0.60;;;;;;;17.97;61.74;97445.00;10516578;28;20067;-28
2022/10/03 14:52:40;;;;;;;10.20;1.88;;;;;;;17.81;62.18;97413.53;10509071;28;20024;-27
2022/10/03 14:57:46;;;;;;;8.27;2.50;;;;;;;18.03;61.58;97450.16;10507993;28;20036;-29
2022/10/03 15:02:47;;;;;;;9.80;2.38;;;;;;;18.00;61.32;97450.13;10509263;28;20035;-29
2022/10/03 15:07:49;;;;;;;8.13;2.30;;;;;;;18.02;61.65;97453.50;10510317;28;20028;-29
2022/10/03 15:12:56;;;;;;;4.10;1.90;;;;;;;17.97;61.94;97452.59;10509638;28;20100;-28
2022/10/03 15:18:01;;;;;;;7.50;2.97;;;;;;;17.94;62.83;97455.97;10504491;28;20450;-28
2022/10/03 15:23:09;;;;;;;9.18;3.08;;;;;;;17.99;62.64;97453.50;10516179;28;20029;-30
2022/10/03 15:28:18;;;;;;;8.77;2.22;;;;;;;18.03;61.93;97450.16;10520660;28;20040;-28
2022/10/03 15:33:29;;;;;;;4.72;2.20;;;;;;;17.96;62.02;97445.81;10511268;28;20024;-28
2022/10/03 15:38:38;;;;;;;8.32;2.53;;;;;;;17.90;63.26;97448.28;10511290;28;20111;-27
2022/10/03 15:44:02;;;;;;;5.95;3.00;;;;;;;17.96;63.47;97443.28;10508901;28;20059;-27
2022/10/03 15:49:33;;;;;;;6.55;2.85;;;;;;;17.98;63.92;97446.72;10507538;28;20427;-28
2022/10/03 15:54:38;;;;;;;6.70;2.25;;;;;;;17.97;62.87;97445.00;10481513;28;20568;-29
2022/10/03 15:59:44;;;;;;;6.75;2.08;;;;;;;17.89;63.18;97451.63;10510789;28;20020;-29
2022/10/03 16:04:46;;;;;;;8.70;3.20;;;;;;;17.89;63.54;97455.03;10507598;28;20491;-27
2022/10/03 16:09:52;;;;;;;7.07;2.40;;;;;;;17.87;63.83;97454.16;10516304;28;20419;-28
2022/10/03 16:15:20;;;;;;;8.05;3.08;;;;;;;17.94;62.89;97450.88;10504874;28;20032;-28
2022/10/03 16:20:29;;;;;;;10.93;2.25;;;;;;;17.94;62.97;97437.34;10503979;28;20077;-28
2022/10/03 16:25:51;;;;;;;5.47;2.30;;;;;;;17.98;62.23;97417.16;10502078;28;20032;-28
2022/10/03 16:31:01;;;;;;;6.18;2.35;;;;;;;18.00;62.46;97428.16;10510132;28;20107;-28
2022/10/03 16:36:08;;;;;;;4.50;2.30;;;;;;;17.97;64.09;97424.72;10510463;28;20044;-28
2022/10/03 16:41:20;;;;;;;9.18;2.17;;;;;;;18.00;64.48;97445.06;10515502;28;20108;-28
2022/10/03 16:46:23;;;;;;;4.60;2.10;;;;;;;17.99;63.94;97438.28;10502492;28;20028;-29
2022/10/03 16:51:37;;;;;;;2.85;1.95;;;;;;;17.93;63.03;97425.53;10508982;28;20100;-28
2022/10/03 16:56:46;;;;;;;5.07;2.05;;;;;;;18.03;62.52;97445.06;10496329;28;20059;-28
2022/10/03 17:02:04;;;;;;;3.65;2.13;;;;;;;18.01;62.95;97454.34;10500560;28;20503;-28
2022/10/03 17:07:14;;;;;;;8.27;1.88;;;;;;;17.98;63.61;97451.78;10510825;28;20066;-28
2022/10/03 17:12:25;;;;;;;9.13;2.20;;;;;;;18.02;63.45;97445.91;10506816;28;20035;-28
2022/10/03 17:17:45;;;;;;;3.40;1.70;;;;;;;18.04;62.78;97451.84;10527425;28;20062;-28
2022/10/03 17:22:55;;;;;;;3.55;2.00;;;;;;;17.99;63.22;97439.13;10507651;28;20086;-29
2022/10/03 17:27:58;;;;;;;3.88;1.63;;;;;;;17.99;63.09;97439.13;10499425;28;20051;-28
2022/10/03 17:33:10;;;;;;;5.43;1.42;;;;;;;17.95;62.79;97441.59;10510555;28;20032;-28
2022/10/03 17:38:35;;;;;;;7.22;1.95;;;;;;;18.00;63.48;97429.84;10499451;28;20130;-29
2022/10/03 17:43:43;;;;;;;8.32;2.10;;;;;;;17.98;63.55;97423.91;10511133;28;20040;-28
2022/10/03 17:49:04;;;;;;;6.13;1.90;;;;;;;17.96;62.97;97428.97;10507289;28;20036;-28
2022/10/03 17:54:14;;;;;;;5.20;1.30;;;;;;;17.98;62.70;97439.13;10506313;28;20036;-28
2022/10/03 17:59:23;;;;;;;3.78;1.63;;;;;;;17.99;61.81;97433.22;10505401;28;20041;-28
2022/10/03 18:04:46;;;;;;;2.17;1.20;;;;;;;17.81;62.29;97397.47;10466994;28;20024;-28
2022/10/03 18:09:49;;;;;;;4.03;1.75;;;;;;;17.96;62.38;97433.16;10455331;28;20032;-28
2022/10/03 18:15:04;;;;;;;4.22;1.35;;;;;;;17.91;62.01;97425.50;10506797;28;20423;-29
2022/10/03 18:20:26;;;;;;;3.70;1.23;;;;;;;17.93;62.58;97428.06;10503580;28;20077;-28
2022/10/03 18:25:56;;;;;;;2.95;1.42;;;;;;;17.94;62.76;97434.81;10500078;28;20457;-28
2022/10/03 18:31:16;;;;;;;2.85;1.38;;;;;;;17.77;62.34;97398.28;10490461;28;20618;-30
2022/10/03 18:36:28;;;;;;;7.25;3.08;;;;;;;18.00;62.92;97418.00;10506824;28;20492;-29
2022/10/03 18:41:28;;;;;;;4.40;1.48;;;;;;;18.01;62.48;97421.41;10509139;28;20033;-28
2022/10/03 18:46:39;;;;;;;4.72;1.33;;;;;;;17.96;62.09;97412.88;10497840;28;20557;-28
2022/10/03 18:51:49;;;;;;;2.72;1.60;;;;;;;17.90;62.56;97418.72;10502039;28;20033;-29
2022/10/03 18:57:16;;;;;;;3.03;1.17;;;;;;;17.91;62.40;97420.44;10498295;28;20491;-28
2022/10/03 19:02:38;;;;;;;2.20;1.27;;;;;;;17.88;62.45;97415.34;10503570;28;20048;-28
2022/10/03 19:07:48;;;;;;;2.28;1.40;;;;;;;17.87;62.02;97408.56;10497846;28;20044;-28
2022/10/03 19:12:58;;;;;;;5.07;1.23;;;;;;;17.88;62.24;97415.34;10493576;28;20036;-29
2022/10/03 19:18:26;;;;;;;2.40;1.73;;;;;;;17.87;62.18;97417.84;10499377;28;20035;-29
2022/10/03 19:23:43;;;;;;;4.13;1.33;;;;;;;17.86;62.26;97431.34;10505870;28;20072;-29
2022/10/03 19:28:49;;;;;;;3.85;1.73;;;;;;;17.79;62.65;97420.28;10498795;28;20406;-29
2022/10/03 19:33:58;;;;;;;5.03;1.23;;;;;;;17.89;62.77;97408.56;10506102;28;20044;-29
2022/10/03 19:38:59;;;;;;;3.10;1.70;;;;;;;17.93;62.80;97407.78;10497985;28;20043;-29
2022/10/03 19:44:12;;;;;;;2.25;1.17;;;;;;;17.91;62.27;97415.38;10498404;28;20032;-29
2022/10/03 19:49:21;;;;;;;1.30;0.90;;;;;;;17.93;61.69;97410.31;10499946;28;20040;-29
2022/10/03 19:54:33;;;;;;;2.20;1.10;;;;;;;17.90;61.73;97412.84;10505508;28;20028;-28
2022/10/03 19:59:58;;;;;;;2.90;1.10;;;;;;;17.89;61.62;97406.03;10508833;28;20031;-29
2022/10/03 20:04:59;;;;;;;1.45;1.00;;;;;;;17.83;62.03;97416.94;10527005;28;20119;-30
2022/10/03 20:10:27;;;;;;;1.77;1.05;;;;;;;17.83;61.96;97411.88;10514402;28;20535;-29
2022/10/03 20:15:37;;;;;;;1.83;1.10;;;;;;;17.81;62.33;97428.75;10476838;28;20559;-28
2022/10/03 20:20:38;;;;;;;1.52;0.95;;;;;;;17.83;61.97;97414.41;10515260;28;20032;-29
2022/10/03 20:25:56;;;;;;;4.53;1.48;;;;;;;17.79;62.04;97407.63;10504201;28;20025;-29
2022/10/03 20:30:57;;;;;;;2.40;1.10;;;;;;;17.77;62.21;97391.56;10502726;28;20029;-29
2022/10/03 20:36:02;;;;;;;1.55;1.20;;;;;;;17.88;62.23;97389.13;10495026;28;20032;-29
2022/10/03 20:41:08;;;;;;;1.98;1.20;;;;;;;17.89;62.48;97381.56;10507825;28;20040;-28
2022/10/03 20:46:46;;;;;;;1.77;1.30;;;;;;;17.89;62.13;97376.50;10511902;28;20032;-29
2022/10/03 20:51:53;;;;;;;1.30;0.82;;;;;;;17.89;62.00;97380.69;10484746;28;20046;-28
2022/10/03 20:57:02;;;;;;;3.00;1.20;;;;;;;17.86;61.75;97378.16;10541273;28;20395;-28
2022/10/03 21:02:12;;;;;;;1.88;1.00;;;;;;;17.80;62.10;97368.78;10516746;28;20101;-29
2022/10/03 21:07:25;;;;;;;2.75;1.08;;;;;;;17.85;61.85;97369.72;10509109;28;20447;-28
2022/10/03 21:12:31;;;;;;;1.73;1.15;;;;;;;17.70;62.12;97351.78;10512309;28;20036;-27
2022/10/03 21:17:32;;;;;;;1.60;0.98;;;;;;;17.75;62.31;97360.25;10513078;28;20036;-29
2022/10/03 21:22:34;;;;;;;1.30;1.10;;;;;;;17.77;62.37;97355.22;10523204;28;20036;-29
2022/10/03 21:27:47;;;;;;;1.13;0.93;;;;;;;17.76;62.12;97366.19;10507348;28;20048;-28
2022/10/03 21:33:16;;;;;;;1.67;1.00;;;;;;;17.77;62.18;97365.38;10522043;28;20368;-29
2022/10/03 21:38:30;;;;;;;2.60;1.30;;;;;;;17.80;62.54;97360.31;10511582;28;20059;-29
2022/10/03 21:43:58;;;;;;;4.28;1.48;;;;;;;17.86;62.86;97352.81;10511705;28;20032;-29
2022/10/03 21:49:23;;;;;;;1.92;1.05;;;;;;;17.88;62.38;97349.47;10511841;28;20020;-30
2022/10/03 21:54:46;;;;;;;1.70;0.98;;;;;;;17.82;61.94;97343.50;10529082;28;20106;-29
2022/10/03 22:00:00;;;;;;;1.70;0.82;;;;;;;17.83;61.65;97346.03;10505539;28;20035;-30
2022/10/03 22:05:20;;;;;;;2.47;1.02;;;;;;;17.79;62.24;97333.31;10512471;28;20056;-29
2022/10/03 22:10:26;;;;;;;2.67;0.98;;;;;;;17.75;62.35;97329.03;10514817;28;20115;-29
2022/10/03 22:15:40;;;;;;;2.45;1.17;;;;;;;17.75;62.11;97332.41;10511108;28;20029;-29
2022/10/03 22:20:55;;;;;;;2.28;1.17;;;;;;;17.73;62.30;97339.13;10511975;28;20055;-29
2022/10/03 22:26:09;;;;;;;1.27;0.90;;;;;;;17.76;61.96;97338.34;10509851;28;20025;-29
2022/10/03 22:31:27;;;;;;;2.78;1.20;;;;;;;17.73;62.24;97328.19;10512006;28;20135;-30
2022/10/03 22:36:28;;;;;;;2.78;1.20;;;;;;;17.73;62.06;97318.88;10507474;28;20031;-29
2022/10/03 22:41:29;;;;;;;1.98;1.05;;;;;;;17.72;62.18;97311.25;10511845;28;20028;-28
2022/10/03 22:46:31;;;;;;;2.55;1.02;;;;;;;17.80;62.67;97314.72;10509249;28;20024;-29
2022/10/03 22:51:34;;;;;;;1.65;1.17;;;;;;;17.84;62.37;97308.88;10514007;28;20043;-29
2022/10/03 22:56:41;;;;;;;2.88;1.20;;;;;;;17.80;62.17;97308.00;10503104;28;20086;-29
2022/10/03 23:01:44;;;;;;;1.52;1.00;;;;;;;17.77;62.14;97289.38;10515051;28;20085;-28
2022/10/03 23:07:01;;;;;;;2.05;1.33;;;;;;;17.77;62.02;97279.25;10509353;28;20036;-29
2022/10/03 23:12:02;;;;;;;;;;;;;;;17.79;61.95;97282.66;10503607;28;20492;-29
2022/10/03 23:17:20;;;;;;;1.45;1.10;;;;;;;17.74;62.13;97274.16;10509216;28;19961;-29
2022/10/03 23:22:25;;;;;;;1.42;1.10;;;;;;;17.72;62.22;97278.34;10515986;28;20029;-29
2022/10/03 23:27:40;;;;;;;1.75;1.23;;;;;;;17.71;62.15;97284.22;10507442;28;20035;-29
2022/10/03 23:32:46;;;;;;;2.17;1.45;;;;;;;17.73;61.85;97283.44;10517225;28;20036;-29
2022/10/03 23:37:48;;;;;;;1.83;1.08;;;;;;;17.70;62.32;97292.66;10507898;28;20020;-31
2022/10/03 23:43:22;;;;;;;2.45;1.05;;;;;;;17.70;62.06;97287.59;10517710;28;20117;-29
2022/10/03 23:48:24;;;;;;;1.60;0.90;;;;;;;17.79;62.31;97292.78;10518688;28;20025;-29
2022/10/03 23:54:01;;;;;;;2.50;1.35;;;;;;;17.83;62.22;97295.34;10510019;28;20032;-29
2022/10/03 23:59:01;;;;;;;2.05;1.00;;;;;;;17.81;62.16;97291.09;10497641;28;20154;-29
